Date,TemperatureHighF,TemperatureAvgF,TemperatureLowF,DewpointHighF,DewpointAvgF,DewpointLowF,HumidityHigh,HumidityAvg,HumidityLow,PressureMaxIn,PressureMinIn,WindSpeedMaxMPH,WindSpeedAvgMPH,GustSpeedMaxMPH,PrecipitationSumIn
2013-9-1,74.1,69.7,66.9,0.0,0.0,0.0,0,0,100,29.87,29.77,13,4,20,0.00
2013-9-2,73.2,68.8,66.2,0.0,0.0,0.0,0,0,100,29.86,29.70,12,4,14,0.00
2013-9-3,74.5,70.4,67.3,0.0,0.0,0.0,0,0,100,29.79,29.67,19,4,20,0.00
2013-9-4,82.2,70.9,61.3,0.0,0.0,0.0,0,0,100,29.90,29.78,16,4,20,0.00
2013-9-5,70.0,64.1,55.8,0.0,0.0,0.0,0,0,100,30.12,29.84,16,4,22,0.00
2013-9-6,67.5,58.9,50.0,0.0,0.0,0.0,0,0,100,30.23,30.07,17,6,19,0.00
2013-9-7,75.0,64.4,55.0,0.0,0.0,0.0,0,0,100,30.07,29.83,14,7,18,0.00
2013-9-8,76.3,65.8,55.0,0.0,0.0,0.0,0,0,100,30.08,29.72,21,6,27,0.00
2013-9-9,65.5,58.1,48.6,0.0,0.0,0.0,0,0,100,30.22,30.07,19,7,20,0.00
2013-9-10,69.8,64.0,59.7,0.0,0.0,0.0,0,0,100,30.15,30.02,20,9,22,0.00
2013-9-11,83.3,72.7,63.3,0.0,0.0,0.0,0,0,100,30.06,29.91,15,6,18,0.00
2013-9-12,78.1,69.9,65.1,0.0,0.0,0.0,0,0,100,29.95,29.65,20,8,23,0.00
2013-9-13,70.7,65.6,60.3,0.0,0.0,0.0,0,0,100,29.73,29.56,12,2,15,0.00
2013-9-14,67.6,61.7,56.8,0.0,0.0,0.0,0,0,100,30.04,29.72,12,3,17,0.00
2013-9-15,66.9,59.5,51.8,0.0,0.0,0.0,0,0,100,30.14,30.03,14,4,15,0.00
2013-9-16,69.6,59.9,50.9,0.0,0.0,0.0,0,0,100,30.22,30.00,15,4,21,0.00
2013-9-17,62.2,52.7,44.1,0.0,0.0,0.0,0,0,100,30.41,30.22,13,5,20,0.00
2013-9-18,68.2,58.2,48.0,0.0,0.0,0.0,0,0,100,30.30,30.12,13,5,15,0.00
2013-9-19,69.1,60.9,52.2,0.0,0.0,0.0,0,0,100,30.12,30.02,9,2,12,0.00
2013-9-20,71.1,62.2,54.5,0.0,0.0,0.0,0,0,100,30.08,30.00,11,3,13,0.00
2013-9-21,68.9,62.8,57.7,0.0,0.0,0.0,0,0,100,30.02,29.73,20,10,24,0.00
2013-9-22,72.1,64.2,54.9,0.0,0.0,0.0,0,0,100,29.80,29.60,21,7,22,0.00
2013-9-23,66.0,54.7,48.0,0.0,0.0,0.0,0,0,100,29.98,29.79,15,4,19,0.00
2013-9-24,66.7,54.7,45.1,0.0,0.0,0.0,0,0,100,29.97,29.80,15,4,18,0.00
2013-9-25,66.2,55.6,47.8,0.0,0.0,0.0,0,0,100,29.97,29.86,15,3,17,0.00
2013-9-26,66.7,58.1,53.4,0.0,0.0,0.0,0,0,100,30.11,29.97,15,4,19,0.00
2013-9-27,67.5,59.6,56.1,0.0,0.0,0.0,0,0,100,30.24,30.11,12,3,17,0.00
2013-9-28,71.8,59.7,52.5,0.0,0.0,0.0,0,0,100,30.31,30.23,13,5,16,0.00
2013-9-29,66.7,56.8,49.6,0.0,0.0,0.0,0,0,100,30.25,30.11,10,4,11,0.00
2013-9-30,66.6,56.1,48.2,0.0,0.0,0.0,0,0,100,30.11,29.95,8,3,10,0.00